Hartwick, New York
Current Conditions -  °F | °C
As of 9:35 PM on Wednesday 22 Oct 2014 (Local Time) from KNY0 Reporting Station
Overcast Overcast  
Wind Chill: 42°   Ceiling: 7000
Heat Index: 47°   Visibility: 10mi
Dew Point: 42°   Wind: 9mph
Humidity: 85%   Direction: 360°N
Pressure: 29.99"   Gusts: 16mph
Location:  42.66°N, 75.05°W
Report Text: KNY0 230135Z AUTO 36008G14KT 10SM SCT048 SCT060 OVC070 08/06 A2999 RMK AO2 P0001 T00810057
Loading
Personal Weather Stations






























Interactive Weather Map
Tropical Storm Tracking
New forecast layout! Learn more

10-Day Weather Forecast

Advertisements
Track Severe Weather on mobile